createdAt,value
2017-11-06T00:02:22.675Z,17.98
2017-11-06T00:04:50.270Z,18.05
2017-11-06T00:07:17.839Z,15.65
2017-11-06T00:09:45.386Z,30.58
2017-11-06T00:12:12.967Z,23.83
2017-11-06T00:14:40.552Z,20.25
2017-11-06T00:17:08.128Z,17.73
2017-11-06T00:19:36.043Z,23.75
2017-11-06T00:22:03.637Z,16.98
2017-11-06T00:24:31.187Z,19.80
2017-11-06T00:26:58.750Z,18.95
2017-11-06T00:29:26.335Z,23.70
2017-11-06T00:31:53.944Z,25.37
2017-11-06T00:34:21.486Z,19.65
2017-11-06T00:36:49.101Z,19.48
2017-11-06T00:39:16.736Z,19.10
2017-11-06T00:41:45.076Z,21.55
2017-11-06T00:44:14.350Z,22.00
2017-11-06T00:46:41.923Z,19.50
2017-11-06T00:49:09.520Z,19.85
2017-11-06T00:51:38.153Z,17.85
2017-11-06T00:54:05.786Z,19.42
2017-11-06T00:56:33.469Z,18.98
2017-11-06T00:59:01.034Z,18.52
2017-11-06T01:01:28.606Z,24.52
2017-11-06T01:03:56.162Z,19.58
2017-11-06T01:06:23.741Z,18.60
2017-11-06T01:08:51.325Z,19.85
2017-11-06T01:11:18.893Z,23.17
2017-11-06T01:13:46.478Z,19.40
2017-11-06T01:16:14.069Z,21.98
2017-11-06T01:18:41.677Z,19.17
2017-11-06T01:21:10.018Z,31.08
2017-11-06T01:23:37.584Z,21.42
2017-11-06T01:26:05.788Z,22.67
2017-11-06T01:28:34.149Z,21.35
2017-11-06T01:31:01.693Z,27.73
2017-11-06T01:33:29.257Z,22.87
2017-11-06T01:35:56.854Z,20.52
2017-11-06T01:38:24.406Z,21.42
2017-11-06T01:40:51.981Z,21.87
2017-11-06T01:43:19.572Z,22.77
2017-11-06T01:45:47.899Z,17.02
2017-11-06T01:48:15.539Z,17.08
2017-11-06T01:50:43.137Z,21.60
2017-11-06T01:53:10.691Z,17.92
2017-11-06T01:55:38.337Z,22.10
2017-11-06T01:58:07.563Z,19.83
2017-11-06T02:00:35.978Z,18.25
2017-11-06T02:03:03.555Z,30.45
2017-11-06T02:05:31.746Z,19.48
2017-11-06T02:08:00.081Z,20.27
2017-11-06T02:10:27.648Z,19.80
2017-11-06T02:12:55.209Z,22.98
2017-11-06T02:15:22.810Z,26.17
2017-11-06T02:17:51.391Z,25.08
2017-11-06T02:20:19.004Z,26.02
2017-11-06T02:22:46.589Z,20.27
2017-11-06T02:25:14.219Z,19.23
2017-11-06T02:27:44.443Z,27.40
2017-11-06T02:30:12.029Z,26.55
2017-11-06T02:32:39.694Z,23.50
2017-11-06T02:35:07.281Z,24.87
2017-11-06T02:37:34.936Z,25.55
2017-11-06T02:40:02.525Z,22.92
2017-11-06T02:42:30.156Z,28.77
2017-11-06T02:44:57.707Z,26.17
2017-11-06T02:47:25.333Z,30.77
2017-11-06T02:49:53.936Z,24.75
2017-11-06T02:52:21.526Z,26.77
2017-11-06T02:54:49.158Z,25.90
2017-11-06T02:57:16.760Z,25.12
2017-11-06T02:59:44.331Z,28.90
2017-11-06T03:02:11.899Z,31.02
2017-11-06T03:04:39.494Z,27.05
2017-11-06T03:07:07.047Z,25.80
2017-11-06T03:09:34.641Z,29.25
2017-11-06T03:12:02.197Z,32.15
2017-11-06T03:14:29.799Z,31.33
2017-11-06T03:16:58.148Z,37.50
2017-11-06T03:19:25.756Z,27.98
2017-11-06T03:21:54.175Z,23.77
2017-11-06T03:24:21.995Z,28.85
2017-11-06T03:26:49.601Z,29.87
2017-11-06T03:29:17.188Z,32.58
2017-11-06T03:31:44.768Z,38.97
2017-11-06T03:34:12.366Z,32.50
2017-11-06T03:36:40.713Z,31.73
2017-11-06T03:39:08.342Z,28.60
2017-11-06T03:41:35.931Z,32.40
2017-11-06T03:44:03.588Z,28.20
2017-11-06T03:46:31.176Z,33.95
2017-11-06T03:48:58.734Z,33.15
2017-11-06T03:51:26.317Z,26.33
2017-11-06T03:53:53.905Z,28.87
2017-11-06T03:56:23.247Z,28.83
2017-11-06T03:58:50.834Z,34.92
2017-11-06T04:01:18.689Z,31.62
2017-11-06T04:03:46.313Z,29.65
2017-11-06T04:06:14.290Z,33.60
2017-11-06T04:08:42.695Z,27.90
2017-11-06T04:11:10.281Z,34.15
2017-11-06T04:13:37.922Z,32.90
2017-11-06T04:16:05.511Z,39.15
2017-11-06T04:18:33.892Z,35.42
2017-11-06T04:21:01.496Z,45.45
2017-11-06T04:23:30.101Z,45.30
2017-11-06T04:25:58.463Z,40.00
2017-11-06T04:28:26.054Z,39.38
2017-11-06T04:30:54.437Z,37.45
2017-11-06T04:33:22.049Z,37.65
2017-11-06T04:35:50.659Z,33.10
2017-11-06T04:38:18.254Z,48.15
2017-11-06T04:40:46.609Z,43.60
2017-11-06T04:43:16.083Z,50.33
2017-11-06T04:45:43.684Z,43.17
2017-11-06T04:48:11.274Z,34.35
2017-11-06T04:50:39.639Z,38.17
2017-11-06T04:53:07.241Z,33.55
2017-11-06T04:55:34.815Z,41.03
2017-11-06T04:58:02.380Z,44.90
2017-11-06T05:00:30.020Z,38.20
2017-11-06T05:02:58.345Z,32.80
2017-11-06T05:05:25.955Z,31.55
2017-11-06T05:07:54.300Z,34.17
2017-11-06T05:10:21.887Z,40.00
2017-11-06T05:12:49.480Z,41.13
2017-11-06T05:15:18.051Z,43.95
2017-11-06T05:17:46.437Z,52.20
2017-11-06T05:20:14.810Z,32.08
2017-11-06T05:22:42.427Z,38.85
2017-11-06T05:25:10.060Z,33.83
2017-11-06T05:27:38.474Z,36.20
2017-11-06T05:30:06.079Z,32.58
2017-11-06T05:32:33.638Z,39.33
2017-11-06T05:35:01.234Z,34.22
2017-11-06T05:37:28.811Z,33.50
2017-11-06T05:39:57.151Z,29.25
2017-11-06T05:42:24.773Z,33.33
2017-11-06T05:44:53.798Z,32.10
2017-11-06T05:47:23.349Z,32.38
2017-11-06T05:49:51.147Z,32.53
2017-11-06T05:52:18.799Z,35.72
2017-11-06T05:54:46.515Z,31.87
2017-11-06T05:57:15.099Z,31.58
2017-11-06T05:59:42.677Z,28.17
2017-11-06T06:02:10.237Z,26.70
2017-11-06T06:04:37.825Z,30.23
2017-11-06T06:07:05.415Z,22.95
2017-11-06T06:09:33.738Z,25.20
2017-11-06T06:12:01.467Z,27.87
2017-11-06T06:14:29.086Z,27.92
2017-11-06T06:16:56.661Z,25.62
2017-11-06T06:19:24.240Z,32.15
2017-11-06T06:21:51.805Z,29.17
2017-11-06T06:24:19.380Z,27.58
2017-11-06T06:26:47.743Z,28.52
2017-11-06T06:29:15.323Z,26.25
2017-11-06T06:31:42.884Z,30.45
2017-11-06T06:34:10.445Z,27.60
2017-11-06T06:36:38.008Z,23.90
2017-11-06T06:39:05.585Z,29.87
2017-11-06T06:41:33.163Z,29.63
2017-11-06T06:44:03.752Z,26.87
2017-11-06T06:46:31.437Z,25.50
2017-11-06T06:48:59.047Z,36.80
2017-11-06T06:51:26.611Z,30.08
2017-11-06T06:53:54.189Z,31.52
2017-11-06T06:56:21.773Z,31.87
2017-11-06T06:58:49.389Z,29.92
2017-11-06T07:01:16.968Z,29.70
2017-11-06T07:03:44.555Z,32.30
2017-11-06T07:06:12.195Z,24.25
2017-11-06T07:08:39.808Z,25.92
2017-11-06T07:11:07.408Z,32.15
2017-11-06T07:13:35.057Z,25.45
2017-11-06T07:16:02.664Z,27.42
2017-11-06T07:18:30.261Z,28.35
2017-11-06T07:20:57.829Z,25.20
2017-11-06T07:23:25.404Z,27.75
2017-11-06T07:25:52.974Z,40.42
2017-11-06T07:28:20.589Z,40.33
2017-11-06T07:30:48.169Z,27.27
2017-11-06T07:33:15.735Z,32.30
2017-11-06T07:35:43.333Z,30.50
2017-11-06T07:38:10.904Z,45.90
2017-11-06T07:40:38.515Z,31.75
2017-11-06T07:43:06.151Z,34.03
2017-11-06T07:45:33.732Z,34.60
2017-11-06T07:48:02.049Z,25.08
2017-11-06T07:50:29.631Z,32.58
2017-11-06T07:52:57.197Z,28.95
2017-11-06T07:55:24.754Z,26.90
2017-11-06T07:57:52.352Z,28.17
2017-11-06T08:00:19.916Z,35.08
2017-11-06T08:02:47.529Z,31.80
2017-11-06T08:05:15.095Z,44.25
2017-11-06T08:07:42.643Z,41.13
2017-11-06T08:10:10.234Z,33.70
2017-11-06T08:12:37.814Z,46.85
2017-11-06T08:15:05.401Z,42.35
2017-11-06T08:17:32.979Z,36.67
2017-11-06T08:20:00.594Z,34.15
2017-11-06T08:22:28.202Z,31.60
2017-11-06T08:24:55.815Z,35.83
2017-11-06T08:27:23.444Z,37.13
2017-11-06T08:29:51.819Z,34.22
2017-11-06T08:32:19.404Z,37.55
2017-11-06T08:34:47.774Z,33.08
2017-11-06T08:37:15.320Z,29.95
2017-11-06T08:39:42.925Z,29.70
2017-11-06T08:42:11.267Z,29.92
2017-11-06T08:44:38.847Z,28.90
2017-11-06T08:47:06.432Z,27.67
2017-11-06T08:49:34.781Z,31.50
2017-11-06T08:52:03.394Z,32.08
2017-11-06T08:54:30.931Z,29.30
2017-11-06T08:56:59.568Z,28.65
2017-11-06T08:59:27.177Z,29.77
2017-11-06T09:01:54.749Z,33.35
2017-11-06T09:04:22.316Z,28.85
2017-11-06T09:06:49.913Z,32.95
2017-11-06T09:09:17.569Z,29.58
2017-11-06T09:11:45.147Z,30.55
2017-11-06T09:14:12.807Z,35.38
2017-11-06T09:16:41.151Z,33.75
2017-11-06T09:19:08.769Z,28.25
2017-11-06T09:21:36.367Z,35.38
2017-11-06T09:24:03.945Z,31.87
2017-11-06T09:26:32.564Z,39.67
2017-11-06T09:29:00.177Z,39.10
2017-11-06T09:31:27.764Z,30.00
2017-11-06T09:33:55.359Z,26.50
2017-11-06T09:36:22.954Z,38.25
2017-11-06T09:38:51.296Z,34.53
2017-11-06T09:41:18.876Z,45.72
2017-11-06T09:43:47.229Z,31.83
2017-11-06T09:46:14.808Z,31.80
2017-11-06T09:48:42.353Z,30.58
2017-11-06T09:51:09.956Z,34.33
2017-11-06T09:53:37.519Z,33.63
2017-11-06T09:56:05.120Z,34.38
2017-11-06T09:58:32.704Z,32.53
2017-11-06T10:01:00.291Z,32.80
2017-11-06T10:03:27.863Z,37.25
2017-11-06T10:05:56.435Z,40.85
2017-11-06T10:08:23.986Z,30.83
2017-11-06T10:10:51.597Z,35.00
2017-11-06T10:13:20.009Z,35.13
2017-11-06T10:15:47.608Z,38.72
2017-11-06T10:18:15.183Z,39.47
2017-11-06T10:20:42.789Z,34.95
2017-11-06T10:23:11.253Z,29.02
2017-11-06T10:25:39.646Z,40.05
2017-11-06T10:28:08.026Z,36.42
2017-11-06T10:30:35.617Z,45.40
2017-11-06T10:33:03.998Z,36.00
2017-11-06T10:35:32.341Z,43.05
2017-11-06T10:38:00.013Z,40.85
2017-11-06T10:40:27.671Z,44.97
2017-11-06T10:42:55.315Z,38.13
2017-11-06T10:45:22.888Z,44.55
2017-11-06T10:47:50.713Z,37.70
2017-11-06T10:50:18.422Z,36.72
2017-11-06T10:52:46.016Z,43.70
2017-11-06T10:55:15.360Z,42.17
2017-11-06T10:57:43.593Z,32.28
2017-11-06T11:00:11.243Z,33.72
2017-11-06T11:02:39.288Z,39.25
2017-11-06T11:05:06.885Z,42.50
2017-11-06T11:07:34.480Z,34.17
2017-11-06T11:10:02.063Z,37.08
2017-11-06T11:12:29.650Z,44.05
2017-11-06T11:14:57.251Z,41.75
2017-11-06T11:17:24.864Z,42.08
2017-11-06T11:19:53.192Z,35.20
2017-11-06T11:22:21.811Z,33.38
2017-11-06T11:24:49.401Z,33.78
2017-11-06T11:27:17.022Z,31.62
2017-11-06T11:29:44.601Z,44.22
2017-11-06T11:32:12.161Z,35.10
2017-11-06T11:34:44.129Z,37.78
2017-11-06T11:37:11.710Z,30.30
2017-11-06T11:39:40.072Z,33.97
2017-11-06T11:42:07.665Z,37.75
2017-11-06T11:44:35.243Z,31.90
2017-11-06T11:47:02.829Z,29.42
2017-11-06T11:49:30.405Z,36.88
2017-11-06T11:51:58.971Z,33.45
2017-11-06T11:54:26.540Z,30.48
2017-11-06T11:56:54.136Z,30.35
2017-11-06T11:59:21.727Z,32.97
2017-11-06T12:01:49.309Z,30.62
2017-11-06T12:04:18.641Z,29.50
2017-11-06T12:06:46.224Z,31.23
2017-11-06T12:09:13.820Z,36.58
2017-11-06T12:11:42.157Z,31.27
2017-11-06T12:14:09.772Z,35.08
2017-11-06T12:16:37.371Z,29.23
2017-11-06T12:19:05.740Z,31.58
2017-11-06T12:21:33.339Z,31.83
2017-11-06T12:24:00.926Z,31.77
2017-11-06T12:26:28.562Z,28.25
2017-11-06T12:28:56.951Z,31.02
2017-11-06T12:31:24.545Z,34.58
2017-11-06T12:33:52.110Z,33.13
2017-11-06T12:36:19.712Z,34.88
2017-11-06T12:38:47.310Z,28.40
2017-11-06T12:41:14.860Z,30.25
2017-11-06T12:43:43.216Z,34.28
2017-11-06T12:46:10.857Z,30.23
2017-11-06T12:48:39.514Z,25.10
2017-11-06T12:51:07.083Z,28.25
2017-11-06T12:53:34.706Z,23.58
2017-11-06T12:56:02.710Z,28.38
2017-11-06T12:58:31.085Z,26.75
2017-11-06T13:00:58.661Z,26.23
2017-11-06T13:03:26.248Z,25.48
2017-11-06T13:05:53.829Z,29.20
2017-11-06T13:08:21.391Z,26.23
2017-11-06T13:10:49.030Z,27.62
2017-11-06T13:13:16.623Z,28.17
2017-11-06T13:15:44.324Z,27.25
2017-11-06T13:18:11.938Z,25.70
2017-11-06T13:20:39.520Z,31.70
2017-11-06T13:23:07.249Z,29.40
2017-11-06T13:25:35.593Z,28.35
2017-11-06T13:28:03.204Z,27.90
2017-11-06T13:30:30.807Z,29.12
2017-11-06T13:32:58.398Z,29.42
2017-11-06T13:35:25.994Z,24.58
2017-11-06T13:37:53.573Z,26.50
2017-11-06T13:40:21.134Z,23.92
2017-11-06T13:42:48.725Z,25.83
2017-11-06T13:45:16.318Z,25.77
2017-11-06T13:47:45.216Z,30.90
2017-11-06T13:50:12.762Z,28.12
2017-11-06T13:52:40.395Z,28.08
2017-11-06T13:55:08.040Z,26.15
2017-11-06T13:57:35.609Z,23.73
2017-11-06T14:00:03.206Z,23.30
2017-11-06T14:02:30.837Z,20.42
2017-11-06T14:04:59.176Z,23.67
2017-11-06T14:07:26.735Z,26.67
2017-11-06T14:09:54.315Z,23.83
2017-11-06T14:12:21.887Z,24.75
2017-11-06T14:14:49.692Z,26.95
2017-11-06T14:17:17.485Z,30.73
2017-11-06T14:19:45.349Z,27.98
2017-11-06T14:22:13.058Z,24.58
2017-11-06T14:24:41.670Z,36.38
2017-11-06T14:27:09.433Z,27.37
2017-11-06T14:29:38.096Z,28.40
2017-11-06T14:32:05.887Z,26.83
2017-11-06T14:34:33.641Z,28.85
2017-11-06T14:37:01.292Z,29.20
2017-11-06T14:39:29.022Z,25.02
2017-11-06T14:41:57.511Z,27.10
2017-11-06T14:44:25.283Z,25.42
2017-11-06T14:46:53.375Z,26.80
2017-11-06T14:49:21.375Z,25.30
2017-11-06T14:51:49.166Z,29.50
2017-11-06T14:54:16.815Z,25.98
2017-11-06T14:56:44.718Z,26.77
2017-11-06T14:59:12.632Z,29.02
2017-11-06T15:01:40.397Z,27.65
2017-11-06T15:04:08.126Z,27.35
2017-11-06T15:06:37.501Z,35.67
2017-11-06T15:09:05.278Z,31.48
2017-11-06T15:11:32.941Z,32.63
2017-11-06T15:14:00.519Z,30.20
2017-11-06T15:16:29.387Z,32.47
2017-11-06T15:18:57.026Z,30.98
2017-11-06T15:21:24.766Z,33.45
2017-11-06T15:23:53.158Z,32.00
2017-11-06T15:26:21.491Z,34.88
2017-11-06T15:28:50.186Z,28.38
2017-11-06T15:31:18.643Z,37.22
2017-11-06T15:33:46.249Z,39.42
2017-11-06T15:36:13.822Z,32.83
2017-11-06T15:38:41.413Z,31.92
2017-11-06T15:41:09.941Z,40.45
2017-11-06T15:43:37.557Z,33.17
2017-11-06T15:46:05.889Z,36.03
2017-11-06T15:48:33.475Z,33.55
2017-11-06T15:51:01.026Z,37.85
2017-11-06T15:53:29.762Z,28.48
2017-11-06T15:55:58.120Z,32.45
2017-11-06T15:58:25.731Z,37.17
2017-11-06T16:00:53.299Z,40.28
2017-11-06T16:03:20.907Z,31.33
2017-11-06T16:05:48.539Z,35.00
2017-11-06T16:08:16.116Z,38.53
2017-11-06T16:10:44.745Z,33.90
2017-11-06T16:13:13.298Z,37.72
2017-11-06T16:15:40.861Z,37.65
2017-11-06T16:18:08.447Z,34.35
2017-11-06T16:20:36.015Z,26.92
2017-11-06T16:23:03.669Z,32.72
2017-11-06T16:25:31.249Z,31.60
2017-11-06T16:27:58.847Z,40.83
2017-11-06T16:30:26.477Z,30.77
2017-11-06T16:32:54.079Z,34.95
2017-11-06T16:35:22.406Z,40.50
2017-11-06T16:37:49.985Z,32.15
2017-11-06T16:40:17.603Z,33.83
2017-11-06T16:42:45.202Z,32.20
2017-11-06T16:45:12.860Z,37.53
2017-11-06T16:47:40.443Z,34.67
2017-11-06T16:50:08.019Z,28.30
2017-11-06T16:52:35.634Z,43.22
2017-11-06T16:55:03.596Z,35.80
2017-11-06T16:57:31.967Z,40.20
2017-11-06T17:00:00.392Z,37.25
2017-11-06T17:02:28.020Z,31.70
2017-11-06T17:04:56.388Z,36.03
2017-11-06T17:07:23.963Z,38.28
2017-11-06T17:09:51.763Z,35.88
2017-11-06T17:12:19.404Z,36.80
2017-11-06T17:14:46.997Z,29.85
2017-11-06T17:17:14.589Z,36.85
2017-11-06T17:19:42.747Z,37.17
2017-11-06T17:22:10.994Z,33.15
2017-11-06T17:24:39.355Z,28.83
2017-11-06T17:27:06.939Z,38.15
2017-11-06T17:29:35.267Z,34.22
2017-11-06T17:32:02.928Z,33.00
2017-11-06T17:34:30.487Z,31.10
2017-11-06T17:36:58.070Z,33.58
2017-11-06T17:39:25.730Z,34.20
2017-11-06T17:41:53.340Z,36.28
2017-11-06T17:44:20.903Z,28.85
2017-11-06T17:46:48.483Z,27.87
2017-11-06T17:49:16.856Z,27.52
2017-11-06T17:51:44.452Z,32.25
2017-11-06T17:54:12.106Z,29.58
2017-11-06T17:56:39.771Z,32.50
2017-11-06T17:59:08.122Z,28.33
2017-11-06T18:01:35.740Z,35.00
2017-11-06T18:04:03.337Z,29.33
2017-11-06T18:06:30.943Z,29.95
2017-11-06T18:08:59.312Z,36.65
2017-11-06T18:11:27.676Z,37.03
2017-11-06T18:13:55.256Z,34.05
2017-11-06T18:16:22.911Z,37.25
2017-11-06T18:18:50.507Z,39.10
2017-11-06T18:21:18.197Z,44.13
2017-11-06T18:23:45.835Z,38.78
2017-11-06T18:26:17.625Z,40.72
2017-11-06T18:28:45.216Z,33.97
2017-11-06T18:31:12.812Z,38.22
2017-11-06T18:33:40.380Z,42.30
2017-11-06T18:36:07.946Z,42.53
2017-11-06T18:38:36.347Z,39.88
2017-11-06T18:41:03.961Z,40.45
2017-11-06T18:43:31.572Z,42.40
2017-11-06T18:45:59.107Z,43.95
2017-11-06T18:48:27.682Z,45.65
2017-11-06T18:50:55.244Z,41.50
2017-11-06T18:53:22.852Z,37.95
2017-11-06T18:55:54.299Z,44.38
2017-11-06T18:58:26.836Z,49.58
2017-11-06T19:00:56.009Z,46.05
2017-11-06T19:03:25.018Z,43.42
2017-11-06T19:05:55.620Z,43.63
2017-11-06T19:08:24.299Z,42.70
2017-11-06T19:11:05.902Z,47.70
2017-11-06T19:13:34.931Z,49.80
2017-11-06T19:16:02.669Z,43.80
2017-11-06T19:18:30.415Z,48.20
2017-11-06T19:21:00.109Z,50.00
2017-11-06T19:23:28.558Z,48.53
2017-11-06T19:25:56.179Z,45.63
2017-11-06T19:28:24.739Z,50.53
2017-11-06T19:30:52.345Z,42.55
2017-11-06T19:33:20.728Z,48.42
2017-11-06T19:35:48.573Z,45.80
2017-11-06T19:38:16.467Z,45.78
2017-11-06T19:40:44.748Z,49.58
2017-11-06T19:43:13.190Z,40.58
2017-11-06T19:45:40.832Z,44.28
2017-11-06T19:48:08.429Z,52.05
2017-11-06T19:50:36.124Z,38.75
2017-11-06T19:53:03.784Z,42.10
2017-11-06T19:55:31.370Z,43.97
2017-11-06T19:58:00.341Z,34.20
2017-11-06T20:00:29.077Z,42.33
2017-11-06T20:02:56.931Z,40.72
2017-11-06T20:05:25.897Z,49.10
2017-11-06T20:07:53.621Z,40.90
2017-11-06T20:10:21.241Z,44.13
2017-11-06T20:12:48.978Z,41.78
2017-11-06T20:15:16.578Z,45.25
2017-11-06T20:17:44.157Z,34.22
2017-11-06T20:20:12.989Z,31.20
2017-11-06T20:22:41.192Z,37.15
2017-11-06T20:25:08.790Z,36.75
2017-11-06T20:27:36.514Z,32.75
2017-11-06T20:30:05.202Z,34.63
2017-11-06T20:32:33.822Z,40.15
2017-11-06T20:35:01.961Z,32.40
2017-11-06T20:37:29.988Z,35.30
2017-11-06T20:39:57.570Z,35.33
2017-11-06T20:42:26.065Z,40.70
2017-11-06T20:44:54.453Z,33.83
2017-11-06T20:47:22.810Z,39.20
2017-11-06T20:49:50.533Z,37.72
2017-11-06T20:52:18.106Z,36.35
2017-11-06T20:54:45.692Z,33.30
2017-11-06T20:57:13.264Z,40.25
2017-11-06T20:59:40.858Z,36.45
2017-11-06T21:02:09.576Z,34.92
2017-11-06T21:04:37.126Z,33.75
2017-11-06T21:07:04.706Z,41.35
2017-11-06T21:09:32.250Z,38.55
2017-11-06T21:11:59.807Z,39.05
2017-11-06T21:14:27.397Z,49.38
2017-11-06T21:16:54.980Z,37.67
2017-11-06T21:19:22.565Z,40.90
2017-11-06T21:21:50.108Z,37.92
2017-11-06T21:24:17.700Z,39.20
2017-11-06T21:26:45.265Z,37.55
2017-11-06T21:29:12.869Z,32.63
2017-11-06T21:31:40.456Z,41.55
2017-11-06T21:34:08.050Z,37.88
2017-11-06T21:36:35.622Z,41.70
2017-11-06T21:39:03.199Z,40.15
2017-11-06T21:41:30.759Z,46.30
2017-11-06T21:43:58.316Z,44.33
2017-11-06T21:46:25.941Z,45.55
2017-11-06T21:48:53.569Z,35.75
2017-11-06T21:51:21.980Z,39.47
2017-11-06T21:53:49.543Z,41.15
2017-11-06T21:56:18.149Z,41.60
2017-11-06T21:58:45.709Z,42.62
2017-11-06T22:01:13.293Z,35.25
2017-11-06T22:03:40.893Z,39.53
2017-11-06T22:06:08.491Z,39.08
2017-11-06T22:08:36.069Z,45.50
2017-11-06T22:11:03.644Z,43.60
2017-11-06T22:13:31.234Z,43.00
2017-11-06T22:15:58.840Z,44.83
2017-11-06T22:18:27.370Z,44.58
2017-11-06T22:20:55.140Z,43.38
2017-11-06T22:23:22.902Z,41.60
2017-11-06T22:25:50.714Z,50.35
2017-11-06T22:28:19.997Z,45.90
2017-11-06T22:30:48.661Z,40.97
2017-11-06T22:33:16.277Z,44.65
2017-11-06T22:35:44.625Z,43.13
2017-11-06T22:38:12.186Z,44.63
2017-11-06T22:40:39.781Z,51.33
2017-11-06T22:43:07.352Z,38.60
2017-11-06T22:45:34.933Z,48.03
2017-11-06T22:48:03.262Z,45.15
2017-11-06T22:50:30.907Z,52.67
2017-11-06T22:52:58.574Z,50.45
2017-11-06T22:55:26.335Z,52.83
2017-11-06T22:57:54.098Z,51.72
2017-11-06T23:00:22.782Z,56.85
2017-11-06T23:02:50.603Z,51.37
2017-11-06T23:05:18.454Z,51.25
2017-11-06T23:07:46.045Z,41.83
2017-11-06T23:10:13.627Z,42.13
2017-11-06T23:12:41.238Z,44.42
2017-11-06T23:15:08.899Z,42.47
2017-11-06T23:17:36.499Z,47.25
2017-11-06T23:20:04.081Z,43.95
2017-11-06T23:22:31.664Z,49.13
2017-11-06T23:24:59.824Z,48.08
2017-11-06T23:27:27.420Z,50.53
2017-11-06T23:29:55.771Z,49.45
2017-11-06T23:32:23.337Z,50.53
2017-11-06T23:34:50.924Z,48.13
2017-11-06T23:37:18.507Z,62.03
2017-11-06T23:39:46.130Z,66.32
2017-11-06T23:42:13.712Z,59.75
2017-11-06T23:44:41.267Z,60.67
2017-11-06T23:47:08.875Z,64.47
2017-11-06T23:49:37.200Z,79.53
2017-11-06T23:52:04.773Z,81.97
2017-11-06T23:54:32.320Z,78.18
2017-11-06T23:56:59.889Z,72.45
2017-11-06T23:59:27.477Z,65.35
